createdAt,value
2023-02-05T00:00:18.049Z,-2.73
2023-02-05T00:02:47.036Z,-2.73
2023-02-05T00:05:14.781Z,-2.73
2023-02-05T00:07:43.405Z,-2.76
2023-02-05T00:10:10.937Z,-2.79
2023-02-05T00:12:39.400Z,-2.79
2023-02-05T00:15:07.009Z,-2.80
2023-02-05T00:17:36.841Z,-2.78
2023-02-05T00:20:06.059Z,-2.75
2023-02-05T00:22:33.733Z,-2.73
2023-02-05T00:25:01.027Z,-2.70
2023-02-05T00:27:28.131Z,-2.65
2023-02-05T00:29:56.205Z,-2.62
2023-02-05T00:32:23.367Z,-2.62
2023-02-05T00:34:51.033Z,-2.61
2023-02-05T00:37:18.424Z,-2.58
2023-02-05T00:39:46.369Z,-2.60
2023-02-05T00:42:13.549Z,-2.62
2023-02-05T00:44:40.833Z,-2.63
2023-02-05T00:47:08.373Z,-2.65
2023-02-05T00:49:36.218Z,-2.65
2023-02-05T00:52:04.636Z,-2.66
2023-02-05T00:54:33.313Z,-2.69
2023-02-05T00:57:00.529Z,-2.73
2023-02-05T00:59:28.034Z,-2.81
2023-02-05T01:01:56.061Z,-2.86
2023-02-05T01:04:23.299Z,-2.83
2023-02-05T01:06:50.871Z,-2.83
2023-02-05T01:09:18.188Z,-2.82
2023-02-05T01:11:45.588Z,-2.81
2023-02-05T01:14:12.910Z,-2.83
2023-02-05T01:16:39.977Z,-2.85
2023-02-05T01:19:07.587Z,-2.85
2023-02-05T01:21:36.468Z,-2.85
2023-02-05T01:24:04.397Z,-2.86
2023-02-05T01:26:31.850Z,-2.86
2023-02-05T01:29:00.321Z,-2.82
2023-02-05T01:31:29.909Z,-2.87
2023-02-05T01:33:57.797Z,-2.91
2023-02-05T01:36:25.012Z,-2.87
2023-02-05T01:38:54.397Z,-2.88
2023-02-05T01:41:22.143Z,-2.92
2023-02-05T01:44:11.930Z,-2.95
2023-02-05T01:46:44.096Z,-2.91
2023-02-05T01:49:19.224Z,-2.94
2023-02-05T01:51:47.318Z,-2.94
2023-02-05T01:54:15.717Z,-2.92
2023-02-05T01:56:47.634Z,-2.94
2023-02-05T01:59:17.025Z,-2.91
2023-02-05T02:01:46.718Z,-2.91
2023-02-05T02:04:16.209Z,-2.94
2023-02-05T02:06:45.922Z,-2.88
2023-02-05T02:09:13.546Z,-2.82
2023-02-05T02:11:41.769Z,-2.81
2023-02-05T02:14:09.949Z,-2.80
2023-02-05T02:16:37.459Z,-2.75
2023-02-05T02:19:13.233Z,-2.70
2023-02-05T02:22:12.382Z,-2.75
2023-02-05T02:25:05.094Z,-2.83
2023-02-05T02:27:37.730Z,-2.84
2023-02-05T02:30:15.961Z,-2.87
2023-02-05T02:32:47.027Z,-2.91
2023-02-05T02:35:32.259Z,-2.94
2023-02-05T02:38:08.874Z,-2.91
2023-02-05T02:41:10.045Z,-2.93
2023-02-05T02:43:50.957Z,-2.96
2023-02-05T02:46:29.479Z,-2.97
2023-02-05T02:48:58.364Z,-2.91
2023-02-05T02:51:26.028Z,-2.90
2023-02-05T02:53:57.193Z,-2.96
2023-02-05T02:56:26.331Z,-3.05
2023-02-05T02:58:56.739Z,-3.04
2023-02-05T03:01:26.044Z,-3.01
2023-02-05T03:03:57.218Z,-2.95
2023-02-05T03:06:25.381Z,-2.96
2023-02-05T03:09:06.257Z,-2.96
2023-02-05T03:11:34.567Z,-2.93
2023-02-05T03:14:01.809Z,-2.94
2023-02-05T03:16:32.185Z,-2.92
2023-02-05T03:19:06.538Z,-2.94
2023-02-05T03:21:40.610Z,-2.95
2023-02-05T03:24:09.035Z,-2.93
2023-02-05T03:26:36.523Z,-2.99
2023-02-05T03:29:12.530Z,-3.08
2023-02-05T03:31:44.623Z,-3.07
2023-02-05T03:34:43.325Z,-3.05
2023-02-05T03:37:13.096Z,-3.12
2023-02-05T03:40:02.681Z,-3.06
2023-02-05T03:42:42.937Z,-3.01
2023-02-05T03:45:57.081Z,-2.97
2023-02-05T03:49:06.566Z,-2.92
2023-02-05T03:51:38.010Z,-2.90
2023-02-05T03:54:28.823Z,-2.98
2023-02-05T03:57:09.172Z,-3.03
2023-02-05T03:59:37.777Z,-3.02
2023-02-05T04:02:05.595Z,-3.02
2023-02-05T04:04:36.546Z,-3.05
2023-02-05T04:07:04.181Z,-3.10
2023-02-05T04:09:33.540Z,-3.10
2023-02-05T04:12:00.986Z,-3.03
2023-02-05T04:14:29.406Z,-3.11
2023-02-05T04:16:57.033Z,-3.14
2023-02-05T04:19:25.494Z,-3.13
2023-02-05T04:21:53.653Z,-3.17
2023-02-05T04:24:21.703Z,-3.18
2023-02-05T04:26:50.216Z,-3.14
2023-02-05T04:29:17.970Z,-3.09
2023-02-05T04:31:46.698Z,-3.09
2023-02-05T04:34:14.172Z,-3.15
2023-02-05T04:36:41.857Z,-3.18
2023-02-05T04:39:08.907Z,-3.20
2023-02-05T04:41:36.053Z,-3.17
2023-02-05T04:44:03.526Z,-3.17
2023-02-05T04:46:31.062Z,-3.18
2023-02-05T04:48:58.176Z,-3.12
2023-02-05T04:51:25.227Z,-3.07
2023-02-05T04:53:52.689Z,-2.99
2023-02-05T04:56:20.038Z,-3.00
2023-02-05T04:58:47.649Z,-3.06
2023-02-05T05:01:16.688Z,-3.08
2023-02-05T05:03:44.302Z,-3.06
2023-02-05T05:06:11.681Z,-3.10
2023-02-05T05:08:39.904Z,-3.15
2023-02-05T05:11:11.908Z,-3.16
2023-02-05T05:13:41.508Z,-3.14
2023-02-05T05:16:09.423Z,-3.16
2023-02-05T05:18:37.090Z,-3.16
2023-02-05T05:21:05.738Z,-3.18
2023-02-05T05:23:34.006Z,-3.13
2023-02-05T05:26:06.987Z,-3.09
2023-02-05T05:28:35.074Z,-3.07
2023-02-05T05:31:10.168Z,-3.11
2023-02-05T05:33:38.126Z,-3.14
2023-02-05T05:36:06.403Z,-3.16
2023-02-05T05:38:34.919Z,-3.16
2023-02-05T05:41:20.871Z,-3.22
2023-02-05T05:43:48.586Z,-3.25
2023-02-05T05:46:25.273Z,-3.26
2023-02-05T05:48:57.940Z,-3.21
2023-02-05T05:51:26.892Z,-3.17
2023-02-05T05:53:54.685Z,-3.21
2023-02-05T05:56:22.048Z,-3.19
2023-02-05T06:02:44.504Z,-3.20
2023-02-05T06:05:12.688Z,-3.31
2023-02-05T06:07:39.941Z,-3.29
2023-02-05T06:10:08.101Z,-3.24
2023-02-05T06:12:37.674Z,-3.24
2023-02-05T06:15:05.982Z,-3.30
2023-02-05T06:17:34.478Z,-3.30
2023-02-05T06:20:01.946Z,-3.26
2023-02-05T06:22:29.941Z,-3.27
2023-02-05T06:24:57.562Z,-3.34
2023-02-05T06:27:26.722Z,-3.35
2023-02-05T06:29:54.861Z,-3.29
2023-02-05T06:32:23.752Z,-3.29
2023-02-05T06:34:54.485Z,-3.25
2023-02-05T06:37:24.957Z,-3.19
2023-02-05T06:39:53.166Z,-3.16
2023-02-05T06:42:21.568Z,-3.19
2023-02-05T06:44:49.871Z,-3.17
2023-02-05T06:47:18.274Z,-3.13
2023-02-05T06:49:45.864Z,-3.12
2023-02-05T06:52:14.242Z,-3.14
2023-02-05T06:54:44.911Z,-3.15
2023-02-05T06:57:13.157Z,-3.09
2023-02-05T06:59:41.166Z,-3.02
2023-02-05T07:02:10.671Z,-2.97
2023-02-05T07:04:39.916Z,-2.99
2023-02-05T07:07:08.425Z,-2.96
2023-02-05T07:09:35.981Z,-2.90
2023-02-05T07:12:05.323Z,-2.87
2023-02-05T07:14:37.321Z,-2.87
2023-02-05T07:17:05.286Z,-2.83
2023-02-05T07:19:34.997Z,-2.84
2023-02-05T07:22:02.570Z,-2.87
2023-02-05T07:24:31.244Z,-2.83
2023-02-05T07:26:59.288Z,-2.75
2023-02-05T07:29:28.133Z,-2.74
2023-02-05T07:31:55.958Z,-2.76
2023-02-05T07:34:23.541Z,-2.73
2023-02-05T07:36:52.467Z,-2.76
2023-02-05T07:39:20.494Z,-2.77
2023-02-05T07:41:49.174Z,-2.75
2023-02-05T07:44:22.054Z,-2.74
2023-02-05T07:46:49.774Z,-2.74
2023-02-05T07:49:18.324Z,-2.70
2023-02-05T07:51:47.452Z,-2.68
2023-02-05T07:54:15.746Z,-2.70
2023-02-05T07:56:43.585Z,-2.70
2023-02-05T07:59:11.668Z,-2.64
2023-02-05T08:01:39.320Z,-2.57
2023-02-05T08:04:07.122Z,-2.53
2023-02-05T08:06:35.113Z,-2.52
2023-02-05T08:09:02.845Z,-2.60
2023-02-05T08:11:32.552Z,-2.64
2023-02-05T08:14:01.651Z,-2.66
2023-02-05T08:16:29.865Z,-2.70
2023-02-05T08:18:58.278Z,-2.72
2023-02-05T08:21:26.602Z,-2.71
2023-02-05T08:23:57.317Z,-2.65
2023-02-05T08:26:25.098Z,-2.59
2023-02-05T08:28:53.844Z,-2.61
2023-02-05T08:31:21.873Z,-2.66
2023-02-05T08:33:51.169Z,-2.67
2023-02-05T08:36:20.112Z,-2.64
2023-02-05T08:38:48.844Z,-2.62
2023-02-05T08:41:16.899Z,-2.64
2023-02-05T08:43:45.703Z,-2.66
2023-02-05T08:46:15.354Z,-2.75
2023-02-05T08:48:43.108Z,-2.75
2023-02-05T08:51:13.650Z,-2.76
2023-02-05T08:53:41.884Z,-2.76
2023-02-05T08:56:10.983Z,-2.74
2023-02-05T08:58:40.207Z,-2.75
2023-02-05T09:01:10.895Z,-2.75
2023-02-05T09:03:39.706Z,-2.75
2023-02-05T09:06:09.731Z,-2.76
2023-02-05T09:08:37.405Z,-2.74
2023-02-05T09:11:05.654Z,-2.68
2023-02-05T09:13:35.068Z,-2.68
2023-02-05T09:16:02.860Z,-2.71
2023-02-05T09:18:31.309Z,-2.69
2023-02-05T09:21:02.855Z,-2.69
2023-02-05T09:23:31.231Z,-2.67
2023-02-05T09:26:02.282Z,-2.60
2023-02-05T09:28:30.900Z,-2.53
2023-02-05T09:30:58.938Z,-2.53
2023-02-05T09:33:26.309Z,-2.53
2023-02-05T09:35:53.987Z,-2.51
2023-02-05T09:38:21.701Z,-2.42
2023-02-05T09:41:01.574Z,-2.30
2023-02-05T09:44:13.900Z,-2.21
2023-02-05T09:47:02.411Z,-2.15
2023-02-05T09:49:34.223Z,-2.13
2023-02-05T09:52:11.277Z,-2.15
2023-02-05T09:54:44.555Z,-2.01
2023-02-05T09:57:17.138Z,-1.87
2023-02-05T09:59:45.982Z,-1.88
2023-02-05T10:02:20.473Z,-1.87
2023-02-05T10:04:52.923Z,-1.85
2023-02-05T10:07:31.435Z,-1.87
2023-02-05T10:10:24.525Z,-1.86
2023-02-05T10:13:05.617Z,-1.85
2023-02-05T10:15:46.089Z,-1.83
2023-02-05T10:18:21.604Z,-1.81
2023-02-05T10:21:01.601Z,-1.78
2023-02-05T10:23:36.214Z,-1.80
2023-02-05T10:26:04.131Z,-1.82
2023-02-05T10:28:56.110Z,-1.73
2023-02-05T10:31:25.814Z,-1.71
2023-02-05T10:33:56.161Z,-1.76
2023-02-05T10:36:25.305Z,-1.79
2023-02-05T10:38:57.566Z,-1.84
2023-02-05T10:41:29.098Z,-1.90
2023-02-05T10:44:06.183Z,-1.85
2023-02-05T10:46:35.197Z,-1.87
2023-02-05T10:49:14.081Z,-1.96
2023-02-05T10:51:44.621Z,-2.03
2023-02-05T10:54:31.052Z,-1.99
2023-02-05T10:56:59.890Z,-1.92
2023-02-05T10:59:33.341Z,-1.90
2023-02-05T11:02:07.389Z,-1.93
2023-02-05T11:04:56.553Z,-1.97
2023-02-05T11:07:55.120Z,-1.98
2023-02-05T11:10:24.719Z,-1.85
2023-02-05T11:13:00.630Z,-1.77
2023-02-05T11:15:33.439Z,-1.78
2023-02-05T11:18:05.685Z,-1.73
2023-02-05T11:20:40.136Z,-1.69
2023-02-05T11:23:13.752Z,-1.69
2023-02-05T11:26:01.594Z,-1.62
2023-02-05T11:28:31.189Z,-1.56
2023-02-05T11:31:23.903Z,-1.63
2023-02-05T11:34:14.264Z,-1.71
2023-02-05T11:36:54.480Z,-1.75
2023-02-05T11:39:37.130Z,-1.76
2023-02-05T11:42:23.451Z,-1.75
2023-02-05T11:45:00.446Z,-1.79
2023-02-05T11:47:33.635Z,-1.81
2023-02-05T11:50:02.748Z,-1.82
2023-02-05T11:52:34.893Z,-1.72
2023-02-05T11:55:03.875Z,-1.59
2023-02-05T11:57:33.874Z,-1.51
2023-02-05T12:00:17.896Z,-1.47
2023-02-05T12:02:55.479Z,-1.47
2023-02-05T12:05:34.123Z,-1.46
2023-02-05T12:08:09.062Z,-1.45
2023-02-05T12:10:59.179Z,-1.44
2023-02-05T12:13:50.763Z,-1.44
2023-02-05T12:16:46.699Z,-1.47
2023-02-05T12:19:20.814Z,-1.47
2023-02-05T12:21:55.348Z,-1.45
2023-02-05T12:24:41.598Z,-1.46
2023-02-05T12:27:33.956Z,-1.53
2023-02-05T12:30:31.630Z,-1.64
2023-02-05T12:33:21.060Z,-1.76
2023-02-05T12:36:05.570Z,-1.80
2023-02-05T12:39:09.511Z,-1.79
2023-02-05T12:42:09.414Z,-1.80
2023-02-05T12:45:22.057Z,-1.88
2023-02-05T12:47:51.988Z,-1.93
2023-02-05T12:50:42.251Z,-1.96
2023-02-05T12:53:23.596Z,-1.94
2023-02-05T12:56:19.153Z,-1.97
2023-02-05T12:59:16.954Z,-1.98
2023-02-05T13:01:56.252Z,-2.01
2023-02-05T13:04:28.321Z,-2.00
2023-02-05T13:07:06.077Z,-1.89
2023-02-05T13:10:00.278Z,-1.87
2023-02-05T13:12:33.733Z,-1.93
2023-02-05T13:15:12.561Z,-1.98
2023-02-05T13:18:06.657Z,-2.04
2023-02-05T13:21:00.511Z,-2.03
2023-02-05T13:23:50.792Z,-2.03
2023-02-05T13:26:37.616Z,-2.05
2023-02-05T13:29:12.565Z,-2.13
2023-02-05T13:31:43.686Z,-2.18
2023-02-05T13:34:13.091Z,-2.16
2023-02-05T13:37:09.221Z,-2.17
2023-02-05T13:39:49.709Z,-2.18
2023-02-05T13:42:26.732Z,-2.20
2023-02-05T13:45:13.750Z,-2.15
2023-02-05T13:47:50.441Z,-2.15
2023-02-05T13:50:47.693Z,-2.21
2023-02-05T13:53:44.442Z,-2.26
2023-02-05T13:56:50.658Z,-2.28
2023-02-05T13:59:38.554Z,-2.21
2023-02-05T14:02:29.897Z,-2.21
2023-02-05T14:04:58.780Z,-2.24
2023-02-05T14:07:38.756Z,-2.24
2023-02-05T14:10:06.940Z,-2.24
2023-02-05T14:12:37.541Z,-2.18
2023-02-05T14:15:18.597Z,-2.16
2023-02-05T14:17:46.233Z,-2.15
2023-02-05T14:20:26.688Z,-2.16
2023-02-05T14:22:58.072Z,-2.16
2023-02-05T14:25:46.213Z,-2.16
2023-02-05T14:28:17.685Z,-2.12
2023-02-05T14:30:48.583Z,-2.13
2023-02-05T14:33:33.058Z,-2.13
2023-02-05T14:36:21.599Z,-2.16
2023-02-05T14:38:53.524Z,-2.22
2023-02-05T14:41:44.820Z,-2.22
2023-02-05T14:44:13.270Z,-2.25
2023-02-05T14:47:03.918Z,-2.34
2023-02-05T14:49:40.325Z,-2.29
2023-02-05T14:52:23.299Z,-2.27
2023-02-05T14:54:57.469Z,-2.27
2023-02-05T14:57:55.851Z,-2.33
2023-02-05T15:00:54.017Z,-2.35
2023-02-05T15:03:32.308Z,-2.33
2023-02-05T15:06:05.941Z,-2.38
2023-02-05T15:08:35.013Z,-2.43
2023-02-05T15:11:22.618Z,-2.42
2023-02-05T15:14:34.141Z,-2.38
2023-02-05T15:17:08.588Z,-2.37
2023-02-05T15:19:56.950Z,-2.41
2023-02-05T15:23:16.825Z,-2.46
2023-02-05T15:25:55.342Z,-2.40
2023-02-05T15:28:31.058Z,-2.37
2023-02-05T15:31:30.690Z,-2.40
2023-02-05T15:34:17.250Z,-2.39
2023-02-05T15:36:50.613Z,-2.38
2023-02-05T15:39:45.385Z,-2.35
2023-02-05T15:42:31.640Z,-2.37
2023-02-05T15:44:59.808Z,-2.42
2023-02-05T15:47:30.103Z,-2.45
2023-02-05T15:49:58.956Z,-2.43
2023-02-05T15:52:28.275Z,-2.43
2023-02-05T15:54:58.110Z,-2.48
2023-02-05T15:57:28.113Z,-2.54
2023-02-05T15:59:56.325Z,-2.50
2023-02-05T16:02:26.355Z,-2.46
2023-02-05T16:04:58.753Z,-2.46
2023-02-05T16:07:31.727Z,-2.46
2023-02-05T16:10:01.476Z,-2.52
2023-02-05T16:12:31.514Z,-2.51
2023-02-05T16:15:02.806Z,-2.51
2023-02-05T16:17:45.799Z,-2.60
2023-02-05T16:20:36.963Z,-2.61
2023-02-05T16:23:10.994Z,-2.59
2023-02-05T16:25:50.258Z,-2.65
2023-02-05T16:28:21.953Z,-2.68
2023-02-05T16:30:49.793Z,-2.69
2023-02-05T16:33:37.057Z,-2.69
2023-02-05T16:36:06.676Z,-2.73
2023-02-05T16:38:34.798Z,-2.74
2023-02-05T16:41:21.429Z,-2.75
2023-02-05T16:43:51.930Z,-2.69
2023-02-05T16:46:29.199Z,-2.63
2023-02-05T16:49:18.481Z,-2.63
2023-02-05T16:51:46.073Z,-2.64
2023-02-05T16:54:14.507Z,-2.60
2023-02-05T16:56:45.986Z,-2.52
2023-02-05T16:59:23.127Z,-2.52
2023-02-05T17:01:51.526Z,-2.52
2023-02-05T17:04:35.777Z,-2.57
2023-02-05T17:07:04.694Z,-2.59
2023-02-05T17:09:36.623Z,-2.57
2023-02-05T17:12:49.256Z,-2.61
2023-02-05T17:15:20.460Z,-2.65
2023-02-05T17:17:53.279Z,-2.69
2023-02-05T17:20:23.345Z,-2.66
2023-02-05T17:23:04.877Z,-2.65
2023-02-05T17:25:39.499Z,-2.69
2023-02-05T17:28:11.064Z,-2.72
2023-02-05T17:30:40.636Z,-2.70
2023-02-05T17:33:08.819Z,-2.66
2023-02-05T17:35:37.333Z,-2.69
2023-02-05T17:38:04.552Z,-2.76
2023-02-05T17:40:32.780Z,-2.84
2023-02-05T17:43:01.015Z,-2.79
2023-02-05T17:45:31.669Z,-2.74
2023-02-05T17:48:00.309Z,-2.79
2023-02-05T17:50:28.030Z,-2.83
2023-02-05T17:52:57.188Z,-2.80
2023-02-05T17:55:26.383Z,-2.79
2023-02-05T17:57:55.908Z,-2.82
2023-02-05T18:00:26.564Z,-2.86
2023-02-05T18:02:55.892Z,-2.89
2023-02-05T18:05:24.110Z,-2.88
2023-02-05T18:07:54.565Z,-2.84
2023-02-05T18:10:26.386Z,-2.81
2023-02-05T18:12:55.273Z,-2.82
2023-02-05T18:15:23.803Z,-2.83
2023-02-05T18:20:57.170Z,-2.82
2023-02-05T18:23:29.194Z,-2.90
2023-02-05T18:26:03.107Z,-3.00
2023-02-05T18:28:30.920Z,-3.00
2023-02-05T18:31:01.659Z,-2.95
2023-02-05T18:33:29.277Z,-2.99
2023-02-05T18:36:10.168Z,-3.04
2023-02-05T18:38:40.952Z,-3.06
2023-02-05T18:41:13.701Z,-3.04
2023-02-05T18:43:42.731Z,-3.05
2023-02-05T18:46:12.356Z,-3.08
2023-02-05T18:48:46.359Z,-3.10
2023-02-05T18:51:14.769Z,-3.08
2023-02-05T18:53:47.069Z,-3.04
2023-02-05T18:56:20.864Z,-3.06
2023-02-05T18:58:59.711Z,-3.07
2023-02-05T19:01:29.382Z,-3.07
2023-02-05T19:04:00.928Z,-3.05
2023-02-05T19:06:29.815Z,-3.07
2023-02-05T19:08:57.613Z,-3.08
2023-02-05T19:11:26.448Z,-3.09
2023-02-05T19:13:57.705Z,-3.03
2023-02-05T19:16:26.323Z,-3.00
2023-02-05T19:18:55.129Z,-3.02
2023-02-05T19:21:24.208Z,-3.06
2023-02-05T19:23:53.595Z,-3.07
2023-02-05T19:26:24.022Z,-3.09
2023-02-05T19:28:57.495Z,-3.10
2023-02-05T19:31:26.957Z,-3.18
2023-02-05T19:33:55.888Z,-3.22
2023-02-05T19:36:25.819Z,-3.22
2023-02-05T19:38:54.111Z,-3.24
2023-02-05T19:41:24.717Z,-3.29
2023-02-05T19:43:55.263Z,-3.33
2023-02-05T19:46:25.665Z,-3.32
2023-02-05T19:48:54.967Z,-3.33
2023-02-05T19:51:24.380Z,-3.41
2023-02-05T19:53:52.997Z,-3.43
2023-02-05T19:56:21.959Z,-3.41
2023-02-05T19:58:52.354Z,-3.40
2023-02-05T20:01:39.084Z,-3.45
2023-02-05T20:04:16.874Z,-3.52
2023-02-05T20:06:47.040Z,-3.59
2023-02-05T20:09:16.249Z,-3.63
2023-02-05T20:11:45.643Z,-3.64
2023-02-05T20:14:14.277Z,-3.70
2023-02-05T20:16:45.115Z,-3.81
2023-02-05T20:19:16.911Z,-3.86
2023-02-05T20:21:45.384Z,-3.83
2023-02-05T20:24:13.439Z,-3.83
2023-02-05T20:26:43.214Z,-3.87
2023-02-05T20:29:31.871Z,-3.92
2023-02-05T20:32:02.255Z,-3.88
2023-02-05T20:34:31.251Z,-3.90
2023-02-05T20:37:02.264Z,-3.93
2023-02-05T20:39:33.474Z,-3.95
2023-02-05T20:42:02.321Z,-3.93
2023-02-05T20:44:33.829Z,-3.95
2023-02-05T20:47:05.153Z,-3.98
2023-02-05T20:49:38.279Z,-4.00
2023-02-05T20:52:08.084Z,-4.04
2023-02-05T20:54:37.895Z,-4.10
2023-02-05T20:57:06.313Z,-4.06
2023-02-05T20:59:36.617Z,-4.05
2023-02-05T21:02:05.714Z,-4.06
2023-02-05T21:04:35.348Z,-4.07
2023-02-05T21:07:03.781Z,-4.07
2023-02-05T21:09:34.097Z,-4.08
2023-02-05T21:12:02.151Z,-4.08
2023-02-05T21:14:31.970Z,-4.17
2023-02-05T21:17:00.816Z,-4.28
2023-02-05T21:19:29.180Z,-4.29
2023-02-05T21:21:57.283Z,-4.26
2023-02-05T21:24:25.909Z,-4.27
2023-02-05T21:26:54.038Z,-4.29
2023-02-05T21:29:22.886Z,-4.31
2023-02-05T21:31:53.327Z,-4.27
2023-02-05T21:34:26.491Z,-4.26
2023-02-05T21:36:55.530Z,-4.30
2023-02-05T21:39:25.584Z,-4.36
2023-02-05T21:41:54.482Z,-4.41
2023-02-05T21:44:23.288Z,-4.42
2023-02-05T21:46:53.926Z,-4.47
2023-02-05T21:49:21.825Z,-4.52
2023-02-05T21:51:53.035Z,-4.58
2023-02-05T21:54:25.352Z,-4.59
2023-02-05T21:56:54.022Z,-4.66
2023-02-05T21:59:22.098Z,-4.76
2023-02-05T22:01:50.449Z,-4.85
2023-02-05T22:04:18.244Z,-4.93
2023-02-05T22:06:46.779Z,-4.95
2023-02-05T22:09:16.915Z,-4.94
2023-02-05T22:11:50.666Z,-4.99
2023-02-05T22:14:20.334Z,-5.07
2023-02-05T22:16:49.660Z,-5.11
2023-02-05T22:19:23.811Z,-5.13
2023-02-05T22:21:52.884Z,-5.12
2023-02-05T22:24:21.583Z,-5.15
2023-02-05T22:26:49.992Z,-5.14
2023-02-05T22:29:23.983Z,-5.13
2023-02-05T22:31:59.330Z,-5.11
2023-02-05T22:34:30.209Z,-5.22
2023-02-05T22:36:59.788Z,-5.21
2023-02-05T22:39:27.859Z,-5.22
2023-02-05T22:41:56.157Z,-5.24
2023-02-05T22:44:25.526Z,-5.26
2023-02-05T22:46:53.705Z,-5.27
2023-02-05T22:49:22.238Z,-5.25
2023-02-05T22:51:52.121Z,-5.26
2023-02-05T22:54:20.149Z,-5.22
2023-02-05T22:56:49.453Z,-5.19
2023-02-05T22:59:18.557Z,-5.17
2023-02-05T23:01:47.805Z,-5.13
2023-02-05T23:04:16.617Z,-5.10
2023-02-05T23:06:45.994Z,-5.12
2023-02-05T23:09:16.930Z,-5.17
2023-02-05T23:11:45.430Z,-5.17
2023-02-05T23:14:14.577Z,-5.14
2023-02-05T23:16:44.366Z,-5.18
2023-02-05T23:19:18.954Z,-5.19
2023-02-05T23:21:47.701Z,-5.18
2023-02-05T23:24:16.496Z,-5.13
2023-02-05T23:26:46.708Z,-5.11
2023-02-05T23:29:16.423Z,-5.12
2023-02-05T23:31:44.596Z,-5.15
2023-02-05T23:34:12.583Z,-5.15
2023-02-05T23:36:40.403Z,-5.10
2023-02-05T23:39:09.657Z,-5.10
2023-02-05T23:41:40.052Z,-5.17
2023-02-05T23:44:16.024Z,-5.24
2023-02-05T23:46:44.434Z,-5.27
2023-02-05T23:49:12.868Z,-5.25
2023-02-05T23:51:41.220Z,-5.25
2023-02-05T23:54:10.564Z,-5.25
2023-02-05T23:56:39.223Z,-5.27
2023-02-05T23:59:07.066Z,-5.23
